createdAt,value
2019-03-18T00:00:13.136Z,3.50
2019-03-18T00:00:59.430Z,3.50
2019-03-18T00:01:45.159Z,3.40
2019-03-18T00:02:31.378Z,3.40
2019-03-18T00:03:17.483Z,3.40
2019-03-18T00:04:03.620Z,3.40
2019-03-18T00:04:49.331Z,3.40
2019-03-18T00:05:35.429Z,3.40
2019-03-18T00:06:21.217Z,3.40
2019-03-18T00:07:07.217Z,3.40
2019-03-18T00:07:52.912Z,3.40
2019-03-18T00:08:39.043Z,3.40
2019-03-18T00:09:24.743Z,3.40
2019-03-18T00:10:10.595Z,3.30
2019-03-18T00:10:56.628Z,3.40
2019-03-18T00:11:42.887Z,3.30
2019-03-18T00:12:28.740Z,3.30
2019-03-18T00:13:14.540Z,3.30
2019-03-18T00:14:00.767Z,3.30
2019-03-18T00:14:46.600Z,3.30
2019-03-18T00:15:32.285Z,3.30
2019-03-18T00:16:18.448Z,3.30
2019-03-18T00:17:04.709Z,3.30
2019-03-18T00:17:50.782Z,3.30
2019-03-18T00:18:36.895Z,3.30
2019-03-18T00:19:23.101Z,3.30
2019-03-18T00:20:08.871Z,3.30
2019-03-18T00:20:54.774Z,3.30
2019-03-18T00:21:40.421Z,3.40
2019-03-18T00:22:26.059Z,3.40
2019-03-18T00:23:12.053Z,3.30
2019-03-18T00:23:58.069Z,3.30
2019-03-18T00:24:44.424Z,3.30
2019-03-18T00:25:30.687Z,3.30
2019-03-18T00:26:16.927Z,3.30
2019-03-18T00:27:02.829Z,3.30
2019-03-18T00:27:48.939Z,3.30
2019-03-18T00:28:35.082Z,3.30
2019-03-18T00:29:21.303Z,3.30
2019-03-18T00:30:09.938Z,3.40
2019-03-18T00:30:55.692Z,3.30
2019-03-18T00:31:41.316Z,3.30
2019-03-18T00:32:27.018Z,3.30
2019-03-18T00:33:13.130Z,3.30
2019-03-18T00:33:59.286Z,3.40
2019-03-18T00:34:45.413Z,3.40
2019-03-18T00:35:31.155Z,3.30
2019-03-18T00:36:17.307Z,3.30
2019-03-18T00:37:03.460Z,3.40
2019-03-18T00:37:49.064Z,3.30
2019-03-18T00:38:34.730Z,3.30
2019-03-18T00:39:20.424Z,3.30
2019-03-18T00:40:06.791Z,3.30
2019-03-18T00:40:52.872Z,3.30
2019-03-18T00:41:38.613Z,3.30
2019-03-18T00:42:24.451Z,3.30
2019-03-18T00:43:10.655Z,3.20
2019-03-18T00:43:56.270Z,3.30
2019-03-18T00:44:42.058Z,3.30
2019-03-18T00:45:28.163Z,3.30
2019-03-18T00:46:13.868Z,3.30
2019-03-18T00:46:59.595Z,3.30
2019-03-18T00:47:45.248Z,3.30
2019-03-18T00:48:30.936Z,3.20
2019-03-18T00:49:16.601Z,3.30
2019-03-18T00:50:02.291Z,3.20
2019-03-18T00:50:47.913Z,3.20
2019-03-18T00:51:33.730Z,3.20
2019-03-18T00:52:19.503Z,3.20
2019-03-18T00:53:05.856Z,3.20
2019-03-18T00:53:52.096Z,3.20
2019-03-18T00:54:38.460Z,3.20
2019-03-18T00:55:24.698Z,3.20
2019-03-18T00:56:10.815Z,3.10
2019-03-18T00:56:56.443Z,3.20
2019-03-18T00:57:42.018Z,3.20
2019-03-18T00:58:27.625Z,3.20
2019-03-18T00:59:13.269Z,3.20
2019-03-18T00:59:58.895Z,3.20
2019-03-18T01:00:44.645Z,3.20
2019-03-18T01:01:30.775Z,3.20
2019-03-18T01:02:16.960Z,3.20
2019-03-18T01:03:02.787Z,3.20
2019-03-18T01:03:48.998Z,3.20
2019-03-18T01:04:35.164Z,3.20
2019-03-18T01:05:20.808Z,3.20
2019-03-18T01:06:07.065Z,3.20
2019-03-18T01:06:52.922Z,3.20
2019-03-18T01:07:39.120Z,3.20
2019-03-18T01:08:28.269Z,3.20
2019-03-18T01:09:14.205Z,3.20
2019-03-18T01:10:00.432Z,3.20
2019-03-18T01:10:46.635Z,3.20
2019-03-18T01:11:32.288Z,3.20
2019-03-18T01:12:17.916Z,3.20
2019-03-18T01:13:04.096Z,3.10
2019-03-18T01:13:50.248Z,3.10
2019-03-18T01:14:36.492Z,3.10
2019-03-18T01:15:27.982Z,3.10
2019-03-18T01:16:10.307Z,3.10
2019-03-18T01:16:56.045Z,3.10
2019-03-18T01:17:41.784Z,3.20
2019-03-18T01:18:27.478Z,3.20
2019-03-18T01:19:13.647Z,3.20
2019-03-18T01:19:59.747Z,3.20
2019-03-18T01:20:45.426Z,3.10
2019-03-18T01:21:31.090Z,3.10
2019-03-18T01:22:16.842Z,3.10
2019-03-18T01:23:02.664Z,3.10
2019-03-18T01:23:48.867Z,3.10
2019-03-18T01:24:35.257Z,3.10
2019-03-18T01:25:21.531Z,3.10
2019-03-18T01:26:07.763Z,3.10
2019-03-18T01:26:53.378Z,3.10
2019-03-18T01:27:42.639Z,3.10
2019-03-18T01:28:28.483Z,3.10
2019-03-18T01:29:14.545Z,3.10
2019-03-18T01:30:00.617Z,3.10
2019-03-18T01:30:46.256Z,3.10
2019-03-18T01:31:31.858Z,3.10
2019-03-18T01:32:17.654Z,3.10
2019-03-18T01:33:03.723Z,3.20
2019-03-18T01:33:49.907Z,3.20
2019-03-18T01:34:35.528Z,3.20
2019-03-18T01:35:21.279Z,3.10
2019-03-18T01:36:06.953Z,3.10
2019-03-18T01:36:52.659Z,3.10
2019-03-18T01:37:38.444Z,3.20
2019-03-18T01:38:24.762Z,3.10
2019-03-18T01:39:11.036Z,3.10
2019-03-18T01:39:56.754Z,3.10
2019-03-18T01:40:42.471Z,3.10
2019-03-18T01:41:28.107Z,3.10
2019-03-18T01:42:16.697Z,3.10
2019-03-18T01:43:02.002Z,3.20
2019-03-18T01:43:47.677Z,3.10
2019-03-18T01:44:33.308Z,3.10
2019-03-18T01:45:19.532Z,3.10
2019-03-18T01:46:05.562Z,3.10
2019-03-18T01:46:51.265Z,3.10
2019-03-18T01:47:36.964Z,3.10
2019-03-18T01:48:23.131Z,3.10
2019-03-18T01:49:08.816Z,3.00
2019-03-18T01:49:54.679Z,3.10
2019-03-18T01:50:40.361Z,3.10
2019-03-18T01:51:26.191Z,3.10
2019-03-18T01:52:12.009Z,3.00
2019-03-18T01:52:57.792Z,3.10
2019-03-18T01:53:43.441Z,3.10
2019-03-18T01:54:29.107Z,3.10
2019-03-18T01:55:14.829Z,3.10
2019-03-18T01:56:00.924Z,3.10
2019-03-18T01:56:46.542Z,3.10
2019-03-18T01:57:32.285Z,3.10
2019-03-18T01:58:18.471Z,3.10
2019-03-18T01:59:04.662Z,3.10
2019-03-18T01:59:50.884Z,3.10
2019-03-18T02:00:36.640Z,3.10
2019-03-18T02:01:22.406Z,3.10
2019-03-18T02:02:08.143Z,3.10
2019-03-18T02:02:53.928Z,3.10
2019-03-18T02:03:39.677Z,3.10
2019-03-18T02:04:25.493Z,3.10
2019-03-18T02:05:11.899Z,3.10
2019-03-18T02:05:58.024Z,3.10
2019-03-18T02:06:44.151Z,3.10
2019-03-18T02:07:29.925Z,3.10
2019-03-18T02:08:15.769Z,3.10
2019-03-18T02:09:01.845Z,3.00
2019-03-18T02:09:47.465Z,3.00
2019-03-18T02:10:33.670Z,3.10
2019-03-18T02:11:19.401Z,3.10
2019-03-18T02:12:05.474Z,3.10
2019-03-18T02:12:51.193Z,3.00
2019-03-18T02:13:37.501Z,3.00
2019-03-18T02:14:23.791Z,3.00
2019-03-18T02:15:09.863Z,3.00
2019-03-18T02:15:55.679Z,3.00
2019-03-18T02:16:41.764Z,3.10
2019-03-18T02:17:27.535Z,3.10
2019-03-18T02:18:13.974Z,3.10
2019-03-18T02:19:00.111Z,3.20
2019-03-18T02:19:46.318Z,3.10
2019-03-18T02:20:32.605Z,3.10
2019-03-18T02:21:18.616Z,3.10
2019-03-18T02:22:04.208Z,3.10
2019-03-18T02:22:49.779Z,3.10
2019-03-18T02:23:35.603Z,3.10
2019-03-18T02:24:21.784Z,3.10
2019-03-18T02:25:08.062Z,3.10
2019-03-18T02:25:53.995Z,3.10
2019-03-18T02:26:40.241Z,3.20
2019-03-18T02:27:26.412Z,3.20
2019-03-18T02:28:12.296Z,3.20
2019-03-18T02:28:58.797Z,3.10
2019-03-18T02:29:44.722Z,3.10
2019-03-18T02:30:31.044Z,3.10
2019-03-18T02:31:16.862Z,3.10
2019-03-18T02:32:03.004Z,3.10
2019-03-18T02:32:49.249Z,3.20
2019-03-18T02:33:35.009Z,3.20
2019-03-18T02:34:25.573Z,3.20
2019-03-18T02:35:12.593Z,3.20
2019-03-18T02:35:58.315Z,3.20
2019-03-18T02:36:44.003Z,3.20
2019-03-18T02:37:30.968Z,3.10
2019-03-18T02:38:20.397Z,3.10
2019-03-18T02:39:06.450Z,3.20
2019-03-18T02:39:52.804Z,3.20
2019-03-18T02:40:38.607Z,3.20
2019-03-18T02:41:24.473Z,3.20
2019-03-18T02:42:10.400Z,3.20
2019-03-18T02:42:56.377Z,3.20
2019-03-18T02:43:41.964Z,3.20
2019-03-18T02:44:27.752Z,3.20
2019-03-18T02:45:13.689Z,3.20
2019-03-18T02:46:09.941Z,3.30
2019-03-18T02:46:47.646Z,3.30
2019-03-18T02:47:34.876Z,3.20
2019-03-18T02:48:20.833Z,3.20
2019-03-18T02:49:06.847Z,3.20
2019-03-18T02:49:52.558Z,3.20
2019-03-18T02:50:38.837Z,3.20
2019-03-18T02:51:24.952Z,3.20
2019-03-18T02:52:11.394Z,3.20
2019-03-18T02:52:57.310Z,3.30
2019-03-18T02:53:43.537Z,3.30
2019-03-18T02:54:29.686Z,3.30
2019-03-18T02:55:15.583Z,3.30
2019-03-18T02:56:01.687Z,3.40
2019-03-18T02:56:47.960Z,3.40
2019-03-18T02:57:33.955Z,3.40
2019-03-18T02:58:19.711Z,3.40
2019-03-18T02:59:05.411Z,3.40
2019-03-18T02:59:51.221Z,3.50
2019-03-18T03:00:37.150Z,3.50
2019-03-18T03:01:23.565Z,3.50
2019-03-18T03:02:09.441Z,3.50
2019-03-18T03:02:55.580Z,3.50
2019-03-18T03:03:41.640Z,3.60
2019-03-18T03:04:28.277Z,3.60
2019-03-18T03:05:14.385Z,3.60
2019-03-18T03:06:00.564Z,3.60
2019-03-18T03:06:46.698Z,3.60
2019-03-18T03:07:32.614Z,3.60
2019-03-18T03:08:18.340Z,3.60
2019-03-18T03:09:06.358Z,3.60
2019-03-18T03:09:52.677Z,3.60
2019-03-18T03:10:38.490Z,3.60
2019-03-18T03:11:24.728Z,3.60
2019-03-18T03:12:10.857Z,3.60
2019-03-18T03:12:56.574Z,3.70
2019-03-18T03:13:42.887Z,3.70
2019-03-18T03:14:29.061Z,3.70
2019-03-18T03:15:15.290Z,3.70
2019-03-18T03:16:01.481Z,3.70
2019-03-18T03:16:47.119Z,3.80
2019-03-18T03:17:32.822Z,3.80
2019-03-18T03:18:18.968Z,3.80
2019-03-18T03:19:04.744Z,3.80
2019-03-18T03:19:50.806Z,3.80
2019-03-18T03:20:36.521Z,3.80
2019-03-18T03:21:22.380Z,3.80
2019-03-18T03:22:08.525Z,3.80
2019-03-18T03:22:54.915Z,3.80
2019-03-18T03:23:40.812Z,3.80
2019-03-18T03:24:26.901Z,3.80
2019-03-18T03:25:13.016Z,3.80
2019-03-18T03:25:59.216Z,3.80
2019-03-18T03:26:49.418Z,3.80
2019-03-18T03:27:35.584Z,3.80
2019-03-18T03:28:21.820Z,3.80
2019-03-18T03:29:08.228Z,3.80
2019-03-18T03:29:54.303Z,3.80
2019-03-18T03:30:40.393Z,3.80
2019-03-18T03:31:26.474Z,3.80
2019-03-18T03:32:12.614Z,3.80
2019-03-18T03:32:58.771Z,3.80
2019-03-18T03:33:45.035Z,3.80
2019-03-18T03:34:31.082Z,3.80
2019-03-18T03:35:17.243Z,3.80
2019-03-18T03:36:03.386Z,3.80
2019-03-18T03:36:49.446Z,3.80
2019-03-18T03:37:35.192Z,3.80
2019-03-18T03:38:21.337Z,3.80
2019-03-18T03:39:07.628Z,3.80
2019-03-18T03:39:53.707Z,3.80
2019-03-18T03:40:39.699Z,3.80
2019-03-18T03:41:25.339Z,3.80
2019-03-18T03:42:11.089Z,3.80
2019-03-18T03:42:57.091Z,3.80
2019-03-18T03:43:42.736Z,3.80
2019-03-18T03:44:28.900Z,3.80
2019-03-18T03:45:14.715Z,3.80
2019-03-18T03:46:00.765Z,3.80
2019-03-18T03:46:46.593Z,3.80
2019-03-18T03:47:32.352Z,3.80
2019-03-18T03:48:18.025Z,3.80
2019-03-18T03:49:04.139Z,3.80
2019-03-18T03:49:49.724Z,3.80
2019-03-18T03:50:35.941Z,3.80
2019-03-18T03:51:21.584Z,3.80
2019-03-18T03:52:07.265Z,3.80
2019-03-18T03:52:53.482Z,3.80
2019-03-18T03:53:39.697Z,3.80
2019-03-18T03:54:25.834Z,3.70
2019-03-18T03:55:11.558Z,3.80
2019-03-18T03:55:57.623Z,3.80
2019-03-18T03:56:43.502Z,3.80
2019-03-18T03:57:29.293Z,3.80
2019-03-18T03:58:15.355Z,3.80
2019-03-18T03:59:01.690Z,3.80
2019-03-18T03:59:47.947Z,3.70
2019-03-18T04:00:34.285Z,3.80
2019-03-18T04:01:20.261Z,3.70
2019-03-18T04:02:05.871Z,3.80
2019-03-18T04:02:51.696Z,3.80
2019-03-18T04:03:38.994Z,3.70
2019-03-18T04:04:25.418Z,3.70
2019-03-18T04:05:11.446Z,3.70
2019-03-18T04:05:57.444Z,3.70
2019-03-18T04:06:43.370Z,3.70
2019-03-18T04:07:29.276Z,3.70
2019-03-18T04:08:14.921Z,3.70
2019-03-18T04:09:01.337Z,3.70
2019-03-18T04:09:47.211Z,3.80
2019-03-18T04:10:32.910Z,3.70
2019-03-18T04:11:18.710Z,3.80
2019-03-18T04:12:04.892Z,3.80
2019-03-18T04:12:50.687Z,3.80
2019-03-18T04:13:36.982Z,3.70
2019-03-18T04:14:23.231Z,3.70
2019-03-18T04:15:08.994Z,3.70
2019-03-18T04:15:55.120Z,3.70
2019-03-18T04:16:44.021Z,3.70
2019-03-18T04:17:28.511Z,3.70
2019-03-18T04:18:14.224Z,3.70
2019-03-18T04:19:00.369Z,3.70
2019-03-18T04:19:46.036Z,3.80
2019-03-18T04:20:31.701Z,3.80
2019-03-18T04:21:17.667Z,3.70
2019-03-18T04:22:03.715Z,3.80
2019-03-18T04:22:49.750Z,3.70
2019-03-18T04:23:36.062Z,3.80
2019-03-18T04:24:22.332Z,3.80
2019-03-18T04:25:08.267Z,3.80
2019-03-18T04:25:54.431Z,3.70
2019-03-18T04:26:40.283Z,3.70
2019-03-18T04:27:26.467Z,3.70
2019-03-18T04:28:12.280Z,3.70
2019-03-18T04:28:58.609Z,3.70
2019-03-18T04:29:44.778Z,3.70
2019-03-18T04:30:30.604Z,3.70
2019-03-18T04:31:16.851Z,3.70
2019-03-18T04:32:03.258Z,3.80
2019-03-18T04:32:49.177Z,3.80
2019-03-18T04:33:35.405Z,3.80
2019-03-18T04:34:21.056Z,3.80
2019-03-18T04:35:07.205Z,3.80
2019-03-18T04:35:53.402Z,3.80
2019-03-18T04:36:39.438Z,3.80
2019-03-18T04:37:25.184Z,3.70
2019-03-18T04:38:11.208Z,3.80
2019-03-18T04:38:56.908Z,3.80
2019-03-18T04:39:42.556Z,3.70
2019-03-18T04:40:28.195Z,3.80
2019-03-18T04:41:13.937Z,3.80
2019-03-18T04:41:59.795Z,3.90
2019-03-18T04:42:46.093Z,3.90
2019-03-18T04:43:32.403Z,3.90
2019-03-18T04:44:18.330Z,3.90
2019-03-18T04:45:04.492Z,3.90
2019-03-18T04:45:50.392Z,3.90
2019-03-18T04:46:36.061Z,3.80
2019-03-18T04:47:21.776Z,3.80
2019-03-18T04:48:07.896Z,3.80
2019-03-18T04:48:53.572Z,3.80
2019-03-18T04:49:39.771Z,3.70
2019-03-18T04:50:25.915Z,3.70
2019-03-18T04:51:11.605Z,3.80
2019-03-18T04:51:57.720Z,3.70
2019-03-18T04:52:43.449Z,3.70
2019-03-18T04:53:29.138Z,3.80
2019-03-18T04:54:14.862Z,3.80
2019-03-18T04:55:01.154Z,3.80
2019-03-18T04:55:47.456Z,3.70
2019-03-18T04:56:33.240Z,3.80
2019-03-18T04:57:18.974Z,3.80
2019-03-18T04:58:05.128Z,3.70
2019-03-18T04:58:51.267Z,3.70
2019-03-18T04:59:37.245Z,3.70
2019-03-18T05:00:23.230Z,3.70
2019-03-18T05:01:08.891Z,3.70
2019-03-18T05:01:54.733Z,3.70
2019-03-18T05:02:40.817Z,3.70
2019-03-18T05:03:26.494Z,3.70
2019-03-18T05:04:12.568Z,3.70
2019-03-18T05:04:58.225Z,3.60
2019-03-18T05:05:43.949Z,3.60
2019-03-18T05:06:29.703Z,3.60
2019-03-18T05:07:15.517Z,3.60
2019-03-18T05:08:01.832Z,3.50
2019-03-18T05:08:48.044Z,3.50
2019-03-18T05:09:34.319Z,3.50
2019-03-18T05:10:20.110Z,3.50
2019-03-18T05:11:06.250Z,3.50
2019-03-18T05:11:52.360Z,3.40
2019-03-18T05:12:38.500Z,3.40
2019-03-18T05:13:26.417Z,3.40
2019-03-18T05:14:11.830Z,3.40
2019-03-18T05:14:57.534Z,3.40
2019-03-18T05:15:43.647Z,3.40
2019-03-18T05:16:29.979Z,3.40
2019-03-18T05:17:26.215Z,3.40
2019-03-18T05:18:03.397Z,3.40
2019-03-18T05:18:49.561Z,3.50
2019-03-18T05:19:35.165Z,3.50
2019-03-18T05:20:20.887Z,3.50
2019-03-18T05:21:06.555Z,3.50
2019-03-18T05:21:52.389Z,3.50
2019-03-18T05:22:38.185Z,3.50
2019-03-18T05:23:24.009Z,3.60
2019-03-18T05:24:10.312Z,3.60
2019-03-18T05:24:56.491Z,3.60
2019-03-18T05:25:42.323Z,3.60
2019-03-18T05:26:28.547Z,3.60
2019-03-18T05:27:14.178Z,3.60
2019-03-18T05:28:00.396Z,3.60
2019-03-18T05:28:46.513Z,3.60
2019-03-18T05:29:32.162Z,3.70
2019-03-18T05:30:18.412Z,3.70
2019-03-18T05:31:04.754Z,3.70
2019-03-18T05:31:50.460Z,3.70
2019-03-18T05:32:36.177Z,3.70
2019-03-18T05:33:22.019Z,3.70
2019-03-18T05:34:08.036Z,3.70
2019-03-18T05:34:54.059Z,3.70
2019-03-18T05:35:40.158Z,3.70
2019-03-18T05:36:26.736Z,3.70
2019-03-18T05:37:12.716Z,3.70
2019-03-18T05:37:58.532Z,3.70
2019-03-18T05:38:44.371Z,3.70
2019-03-18T05:39:30.596Z,3.80
2019-03-18T05:40:16.411Z,3.80
2019-03-18T05:41:02.478Z,3.80
2019-03-18T05:41:48.267Z,3.80
2019-03-18T05:42:34.494Z,3.80
2019-03-18T05:43:20.689Z,3.80
2019-03-18T05:44:08.033Z,3.80
2019-03-18T05:44:54.032Z,3.80
2019-03-18T05:45:40.254Z,3.80
2019-03-18T05:46:26.508Z,3.80
2019-03-18T05:47:12.729Z,3.80
2019-03-18T05:47:58.854Z,3.80
2019-03-18T05:48:45.208Z,3.90
2019-03-18T05:49:31.119Z,3.90
2019-03-18T05:50:16.824Z,3.90
2019-03-18T05:51:03.088Z,3.90
2019-03-18T05:51:49.302Z,3.90
2019-03-18T05:52:34.970Z,3.90
2019-03-18T05:53:20.720Z,3.90
2019-03-18T05:54:06.539Z,3.90
2019-03-18T05:54:52.964Z,3.90
2019-03-18T05:55:39.179Z,3.80
2019-03-18T05:56:25.309Z,3.80
2019-03-18T05:57:11.471Z,3.80
2019-03-18T05:57:57.212Z,3.80
2019-03-18T05:58:43.347Z,3.80
2019-03-18T05:59:29.066Z,3.80
2019-03-18T06:00:15.170Z,3.70
2019-03-18T06:01:00.832Z,3.70
2019-03-18T06:01:46.912Z,3.70
2019-03-18T06:02:32.834Z,3.70
2019-03-18T06:03:19.039Z,3.70
2019-03-18T06:04:04.683Z,3.70
2019-03-18T06:04:50.526Z,3.70
2019-03-18T06:05:36.583Z,3.70
2019-03-18T06:06:22.455Z,3.70
2019-03-18T06:07:08.300Z,3.70
2019-03-18T06:07:54.134Z,3.70
2019-03-18T06:08:40.398Z,3.70
2019-03-18T06:09:26.047Z,3.70
2019-03-18T06:10:11.786Z,3.70
2019-03-18T06:10:57.927Z,3.70
2019-03-18T06:11:43.660Z,3.70
2019-03-18T06:12:29.749Z,3.70
2019-03-18T06:13:15.359Z,3.80
2019-03-18T06:14:01.612Z,3.90
2019-03-18T06:14:47.687Z,3.90
2019-03-18T06:15:33.372Z,3.90
2019-03-18T06:16:19.541Z,4.00
2019-03-18T06:17:05.751Z,4.00
2019-03-18T06:17:52.963Z,4.00
2019-03-18T06:18:39.260Z,4.10
2019-03-18T06:19:25.098Z,4.10
2019-03-18T06:20:11.344Z,4.10
2019-03-18T06:20:57.474Z,4.20
2019-03-18T06:21:43.714Z,4.20
2019-03-18T06:22:30.160Z,4.20
2019-03-18T06:23:16.337Z,4.30
2019-03-18T06:24:02.816Z,4.30
2019-03-18T06:24:48.779Z,4.30
2019-03-18T06:25:34.923Z,4.30
2019-03-18T06:26:21.043Z,4.30
2019-03-18T06:27:06.715Z,4.40
2019-03-18T06:27:52.374Z,4.40
2019-03-18T06:28:38.169Z,4.40
2019-03-18T06:29:24.154Z,4.40
2019-03-18T06:30:10.009Z,4.40
2019-03-18T06:30:55.992Z,4.30
2019-03-18T06:31:42.132Z,4.30
2019-03-18T06:32:28.311Z,4.30
2019-03-18T06:33:14.100Z,4.30
2019-03-18T06:34:00.341Z,4.30
2019-03-18T06:34:46.056Z,4.30
2019-03-18T06:35:32.308Z,4.30
2019-03-18T06:36:18.156Z,4.20
2019-03-18T06:37:04.527Z,4.20
2019-03-18T06:37:50.788Z,4.20
2019-03-18T06:38:37.099Z,4.20
2019-03-18T06:39:22.731Z,4.30
2019-03-18T06:40:08.563Z,4.30
2019-03-18T06:40:54.644Z,4.40
2019-03-18T06:41:40.871Z,4.50
2019-03-18T06:42:26.487Z,4.50
2019-03-18T06:43:12.716Z,4.50
2019-03-18T06:43:58.328Z,4.50
2019-03-18T06:44:44.542Z,4.50
2019-03-18T06:45:30.292Z,4.50
2019-03-18T06:46:16.403Z,4.60
2019-03-18T06:47:02.151Z,4.70
2019-03-18T06:47:47.960Z,4.70
2019-03-18T06:48:34.105Z,4.60
2019-03-18T06:49:19.898Z,4.70
2019-03-18T06:50:05.884Z,4.60
2019-03-18T06:50:51.872Z,4.50
2019-03-18T06:51:37.575Z,4.60
2019-03-18T06:52:23.399Z,4.60
2019-03-18T06:53:09.460Z,4.60
2019-03-18T06:53:55.239Z,4.60
2019-03-18T06:54:41.317Z,4.60
2019-03-18T06:55:26.963Z,4.60
2019-03-18T06:56:12.647Z,4.70
2019-03-18T06:56:58.332Z,4.60
2019-03-18T06:57:43.986Z,4.70
2019-03-18T06:58:29.731Z,4.70
2019-03-18T06:59:15.435Z,4.70
2019-03-18T07:00:01.662Z,4.80
2019-03-18T07:00:48.014Z,4.80
2019-03-18T07:01:33.815Z,4.80
2019-03-18T07:02:19.755Z,4.80
2019-03-18T07:03:06.186Z,4.90
2019-03-18T07:03:52.222Z,4.90
2019-03-18T07:04:38.343Z,5.00
2019-03-18T07:05:24.069Z,5.00
2019-03-18T07:06:10.170Z,5.00
2019-03-18T07:06:55.989Z,5.00
2019-03-18T07:07:42.057Z,5.10
2019-03-18T07:08:27.823Z,5.20
2019-03-18T07:09:14.019Z,5.20
2019-03-18T07:09:59.683Z,5.10
2019-03-18T07:10:45.934Z,5.10
2019-03-18T07:11:32.059Z,5.10
2019-03-18T07:12:17.821Z,5.20
2019-03-18T07:13:03.986Z,5.20
2019-03-18T07:13:49.821Z,5.20
2019-03-18T07:14:35.597Z,5.10
2019-03-18T07:15:22.040Z,5.10
2019-03-18T07:16:08.307Z,5.00
2019-03-18T07:16:54.595Z,5.10
2019-03-18T07:17:40.607Z,5.00
2019-03-18T07:18:26.530Z,5.10
2019-03-18T07:19:12.714Z,5.30
2019-03-18T07:19:58.783Z,5.30
2019-03-18T07:20:44.904Z,5.40
2019-03-18T07:21:30.667Z,5.50
2019-03-18T07:22:16.727Z,5.60
2019-03-18T07:23:02.425Z,5.70
2019-03-18T07:23:48.063Z,5.80
2019-03-18T07:24:33.734Z,5.80
2019-03-18T07:25:19.512Z,5.80
2019-03-18T07:26:05.204Z,5.90
2019-03-18T07:26:51.052Z,6.00
2019-03-18T07:27:37.297Z,6.10
2019-03-18T07:28:23.072Z,6.20
2019-03-18T07:29:09.296Z,6.20
2019-03-18T07:29:55.123Z,6.20
2019-03-18T07:30:40.857Z,6.00
2019-03-18T07:31:26.936Z,5.80
2019-03-18T07:32:12.558Z,5.70
2019-03-18T07:32:58.274Z,5.70
2019-03-18T07:33:44.313Z,5.80
2019-03-18T07:34:30.011Z,5.90
2019-03-18T07:35:16.259Z,6.00
2019-03-18T07:36:02.308Z,6.00
2019-03-18T07:36:48.015Z,6.20
2019-03-18T07:37:33.684Z,6.30
2019-03-18T07:38:19.326Z,6.30
2019-03-18T07:39:06.024Z,6.40
2019-03-18T07:39:51.987Z,6.30
2019-03-18T07:40:37.661Z,6.20
2019-03-18T07:41:23.456Z,6.10
2019-03-18T07:42:16.795Z,6.00
2019-03-18T07:43:03.144Z,6.10
2019-03-18T07:43:49.205Z,6.20
2019-03-18T07:44:39.220Z,6.30
2019-03-18T07:45:26.120Z,6.40
2019-03-18T07:46:12.101Z,6.70
2019-03-18T07:47:00.932Z,7.00
2019-03-18T07:47:46.908Z,7.50
2019-03-18T07:48:32.545Z,8.20
2019-03-18T07:49:18.186Z,8.90
2019-03-18T07:50:04.989Z,9.60
2019-03-18T07:50:51.189Z,10.20
2019-03-18T07:51:36.943Z,10.10
2019-03-18T07:52:23.239Z,10.10
2019-03-18T07:53:09.430Z,10.10
2019-03-18T07:53:55.728Z,10.20
2019-03-18T07:54:41.835Z,10.30
2019-03-18T07:55:27.877Z,10.80
2019-03-18T07:56:14.072Z,10.80
2019-03-18T07:57:00.449Z,11.20
2019-03-18T07:57:46.777Z,11.10
2019-03-18T07:58:32.490Z,11.30
2019-03-18T07:59:18.223Z,11.40
2019-03-18T08:00:04.204Z,11.00
2019-03-18T08:00:50.191Z,10.40
2019-03-18T08:01:36.317Z,9.70
2019-03-18T08:02:22.145Z,9.50
2019-03-18T08:03:08.254Z,9.40
2019-03-18T08:03:53.991Z,9.40
2019-03-18T08:04:40.174Z,9.50
2019-03-18T08:05:25.872Z,9.60
2019-03-18T08:06:11.586Z,9.80
2019-03-18T08:06:57.296Z,9.70
2019-03-18T08:07:43.146Z,9.60
2019-03-18T08:08:29.305Z,9.90
2019-03-18T08:09:15.631Z,10.50
2019-03-18T08:10:02.081Z,10.70
2019-03-18T08:10:48.221Z,11.10
2019-03-18T08:11:34.423Z,11.40
2019-03-18T08:12:20.423Z,12.10
2019-03-18T08:13:06.546Z,12.50
2019-03-18T08:13:52.611Z,12.30
2019-03-18T08:14:38.744Z,12.00
2019-03-18T08:15:24.418Z,12.00
2019-03-18T08:16:10.156Z,11.90
2019-03-18T08:16:56.174Z,11.30
2019-03-18T08:17:41.904Z,10.50
2019-03-18T08:18:27.984Z,9.80
2019-03-18T08:19:13.655Z,9.90
2019-03-18T08:19:59.808Z,10.80
2019-03-18T08:20:45.639Z,11.10
2019-03-18T08:21:31.823Z,11.20
2019-03-18T08:22:17.611Z,11.10
2019-03-18T08:23:03.907Z,10.70
2019-03-18T08:23:49.626Z,11.10
2019-03-18T08:24:37.097Z,11.40
2019-03-18T08:25:23.092Z,11.60
2019-03-18T08:26:08.723Z,11.50
2019-03-18T08:26:54.416Z,11.60
2019-03-18T08:27:40.145Z,11.70
2019-03-18T08:28:26.316Z,11.20
2019-03-18T08:29:12.467Z,10.60
2019-03-18T08:29:58.049Z,10.30
2019-03-18T08:30:44.212Z,10.10
2019-03-18T08:31:30.399Z,9.80
2019-03-18T08:32:16.563Z,9.30
2019-03-18T08:33:02.287Z,9.20
2019-03-18T08:33:48.473Z,9.30
2019-03-18T08:34:34.231Z,9.70
2019-03-18T08:35:20.008Z,9.80
2019-03-18T08:36:05.723Z,9.90
2019-03-18T08:36:51.917Z,9.90
2019-03-18T08:37:37.775Z,10.00
2019-03-18T08:38:24.087Z,9.80
2019-03-18T08:39:09.716Z,9.50
2019-03-18T08:39:55.368Z,9.60
2019-03-18T08:40:41.049Z,9.30
2019-03-18T08:41:27.181Z,9.30
2019-03-18T08:42:12.803Z,8.90
2019-03-18T08:42:58.522Z,8.70
2019-03-18T08:43:44.230Z,8.50
2019-03-18T08:44:30.342Z,8.30
2019-03-18T08:45:16.042Z,8.10
2019-03-18T08:46:01.698Z,8.20
2019-03-18T08:46:47.980Z,8.30
2019-03-18T08:47:33.749Z,8.40
2019-03-18T08:48:20.054Z,8.50
2019-03-18T08:49:06.356Z,8.60
2019-03-18T08:49:52.587Z,8.70
2019-03-18T08:50:38.359Z,8.60
2019-03-18T08:51:24.679Z,8.70
2019-03-18T08:52:10.303Z,9.10
2019-03-18T08:52:56.481Z,9.60
2019-03-18T08:53:42.131Z,9.80
2019-03-18T08:54:28.395Z,9.50
2019-03-18T08:55:14.158Z,9.50
2019-03-18T08:55:59.864Z,9.90
2019-03-18T08:56:45.874Z,10.50
2019-03-18T08:57:32.019Z,10.90
2019-03-18T08:58:17.820Z,11.20
2019-03-18T08:59:03.968Z,11.70
2019-03-18T08:59:49.757Z,12.00
2019-03-18T09:00:35.442Z,12.40
2019-03-18T09:01:21.267Z,12.20
2019-03-18T09:02:07.085Z,12.10
2019-03-18T09:02:56.145Z,12.10
2019-03-18T09:03:41.252Z,11.80
2019-03-18T09:04:27.287Z,11.70
2019-03-18T09:05:13.256Z,11.90
2019-03-18T09:05:59.423Z,12.10
2019-03-18T09:06:45.348Z,12.30
2019-03-18T09:07:31.539Z,12.10
2019-03-18T09:08:17.587Z,11.70
2019-03-18T09:09:06.597Z,11.50
2019-03-18T09:09:52.547Z,11.70
2019-03-18T09:10:38.664Z,11.40
2019-03-18T09:11:24.745Z,11.50
2019-03-18T09:12:10.508Z,11.50
2019-03-18T09:12:56.614Z,11.40
2019-03-18T09:13:42.755Z,11.40
2019-03-18T09:14:28.891Z,11.10
2019-03-18T09:15:14.604Z,10.70
2019-03-18T09:16:00.442Z,10.80
2019-03-18T09:16:46.180Z,11.00
2019-03-18T09:17:32.127Z,11.40
2019-03-18T09:18:18.171Z,11.60
2019-03-18T09:19:08.945Z,12.60
2019-03-18T09:19:52.127Z,12.60
2019-03-18T09:20:38.325Z,12.60
2019-03-18T09:21:24.480Z,12.40
2019-03-18T09:22:10.724Z,12.30
2019-03-18T09:22:56.525Z,12.20
2019-03-18T09:23:42.205Z,12.40
2019-03-18T09:24:27.890Z,12.30
2019-03-18T09:25:13.703Z,12.50
2019-03-18T09:25:59.639Z,11.90
2019-03-18T09:26:45.285Z,12.70
2019-03-18T09:27:30.957Z,14.10
2019-03-18T09:28:16.674Z,14.80
2019-03-18T09:29:02.808Z,14.80
2019-03-18T09:29:48.487Z,15.20
2019-03-18T09:30:34.158Z,15.80
2019-03-18T09:31:20.383Z,15.70
2019-03-18T09:32:06.628Z,15.10
2019-03-18T09:32:52.800Z,14.40
2019-03-18T09:33:38.622Z,13.70
2019-03-18T09:34:24.888Z,13.20
2019-03-18T09:35:11.263Z,13.00
2019-03-18T09:35:57.352Z,14.40
2019-03-18T09:36:43.027Z,14.80
2019-03-18T09:37:29.147Z,15.40
2019-03-18T09:38:14.823Z,14.60
2019-03-18T09:39:00.446Z,14.70
2019-03-18T09:39:46.233Z,14.20
2019-03-18T09:40:32.443Z,13.80
2019-03-18T09:41:18.173Z,13.60
2019-03-18T09:42:04.299Z,13.30
2019-03-18T09:42:50.098Z,12.90
2019-03-18T09:43:36.229Z,12.80
2019-03-18T09:44:22.439Z,12.90
2019-03-18T09:45:08.612Z,13.00
2019-03-18T09:45:54.690Z,12.90
2019-03-18T09:46:47.738Z,12.70
2019-03-18T09:47:37.759Z,12.40
2019-03-18T09:48:27.080Z,12.70
2019-03-18T09:49:21.533Z,13.20
2019-03-18T09:50:01.367Z,13.20
2019-03-18T09:50:47.371Z,13.50
2019-03-18T09:51:33.469Z,13.80
2019-03-18T09:52:19.248Z,13.60
2019-03-18T09:53:05.695Z,14.00
2019-03-18T09:53:51.367Z,14.00
2019-03-18T09:54:37.468Z,14.30
2019-03-18T09:55:23.221Z,14.50
2019-03-18T09:56:11.576Z,14.90
2019-03-18T09:56:57.483Z,15.40
2019-03-18T09:57:43.641Z,15.80
2019-03-18T09:58:29.646Z,15.20
2019-03-18T09:59:15.615Z,14.80
2019-03-18T10:00:01.406Z,15.00
2019-03-18T10:00:47.554Z,14.50
2019-03-18T10:01:33.674Z,14.10
2019-03-18T10:02:19.928Z,14.10
2019-03-18T10:03:05.639Z,14.10
2019-03-18T10:03:51.623Z,14.30
2019-03-18T10:04:37.812Z,14.10
2019-03-18T10:05:23.925Z,14.20
2019-03-18T10:06:10.167Z,14.10
2019-03-18T10:06:56.242Z,14.30
2019-03-18T10:07:42.303Z,14.50
2019-03-18T10:08:27.923Z,14.60
2019-03-18T10:09:13.706Z,14.60